sensor_id;sensor_type;location;lat;lon;timestamp;temperature;humidity
56300;DHT22;42209;6.376;-10.782;2023-02-03T00:00:05;22.70;48.60
56300;DHT22;42209;6.376;-10.782;2023-02-03T00:02:40;22.80;51.20
56300;DHT22;42209;6.376;-10.782;2023-02-03T00:05:08;22.90;52.90
56300;DHT22;42209;6.376;-10.782;2023-02-03T00:07:38;23.00;54.70
56300;DHT22;42209;6.376;-10.782;2023-02-03T00:10:07;23.20;55.90
56300;DHT22;42209;6.376;-10.782;2023-02-03T00:12:36;23.30;56.50
56300;DHT22;42209;6.376;-10.782;2023-02-03T00:15:04;23.40;56.30
56300;DHT22;42209;6.376;-10.782;2023-02-03T00:17:36;23.40;52.20
56300;DHT22;42209;6.376;-10.782;2023-02-03T00:20:05;23.20;50.00
56300;DHT22;42209;6.376;-10.782;2023-02-03T00:22:33;23.00;48.60
56300;DHT22;42209;6.376;-10.782;2023-02-03T00:25:02;22.80;47.80
56300;DHT22;42209;6.376;-10.782;2023-02-03T00:27:31;22.70;46.80
56300;DHT22;42209;6.376;-10.782;2023-02-03T00:30:00;22.60;46.10
56300;DHT22;42209;6.376;-10.782;2023-02-03T00:32:28;22.60;45.20
56300;DHT22;42209;6.376;-10.782;2023-02-03T00:34:58;22.50;44.60
56300;DHT22;42209;6.376;-10.782;2023-02-03T00:37:26;22.50;43.90
56300;DHT22;42209;6.376;-10.782;2023-02-03T00:39:55;22.40;43.50
56300;DHT22;42209;6.376;-10.782;2023-02-03T00:42:23;22.40;43.10
56300;DHT22;42209;6.376;-10.782;2023-02-03T00:44:51;22.40;42.50
56300;DHT22;42209;6.376;-10.782;2023-02-03T00:47:21;22.40;42.20
56300;DHT22;42209;6.376;-10.782;2023-02-03T00:49:49;22.40;41.80
56300;DHT22;42209;6.376;-10.782;2023-02-03T00:52:18;22.40;41.80
56300;DHT22;42209;6.376;-10.782;2023-02-03T00:54:46;22.40;41.20
56300;DHT22;42209;6.376;-10.782;2023-02-03T00:57:16;22.40;40.90
56300;DHT22;42209;6.376;-10.782;2023-02-03T00:59:44;22.40;40.80
56300;DHT22;42209;6.376;-10.782;2023-02-03T01:02:12;22.40;40.50
56300;DHT22;42209;6.376;-10.782;2023-02-03T01:04:41;22.40;40.20
56300;DHT22;42209;6.376;-10.782;2023-02-03T01:07:10;22.50;40.00
56300;DHT22;42209;6.376;-10.782;2023-02-03T01:09:38;22.50;39.30
56300;DHT22;42209;6.376;-10.782;2023-02-03T01:12:07;22.50;39.70
56300;DHT22;42209;6.376;-10.782;2023-02-03T01:14:35;22.60;42.70
56300;DHT22;42209;6.376;-10.782;2023-02-03T01:17:04;22.70;46.80
56300;DHT22;42209;6.376;-10.782;2023-02-03T01:19:32;22.90;49.90
56300;DHT22;42209;6.376;-10.782;2023-02-03T01:22:00;23.00;51.80
56300;DHT22;42209;6.376;-10.782;2023-02-03T01:24:30;23.10;53.30
56300;DHT22;42209;6.376;-10.782;2023-02-03T01:26:58;23.20;54.00
56300;DHT22;42209;6.376;-10.782;2023-02-03T01:29:27;23.30;54.10
56300;DHT22;42209;6.376;-10.782;2023-02-03T01:31:56;23.50;53.70
56300;DHT22;42209;6.376;-10.782;2023-02-03T01:34:24;23.40;49.50
56300;DHT22;42209;6.376;-10.782;2023-02-03T01:36:55;23.10;48.10
56300;DHT22;42209;6.376;-10.782;2023-02-03T01:39:24;23.10;50.90
56300;DHT22;42209;6.376;-10.782;2023-02-03T01:41:54;23.10;56.20
56300;DHT22;42209;6.376;-10.782;2023-02-03T01:44:45;23.20;57.10
56300;DHT22;42209;6.376;-10.782;2023-02-03T01:52:45;23.30;50.30
56300;DHT22;42209;6.376;-10.782;2023-02-03T01:55:18;23.10;48.90
56300;DHT22;42209;6.376;-10.782;2023-02-03T01:57:58;22.90;48.90
56300;DHT22;42209;6.376;-10.782;2023-02-03T02:00:27;22.70;47.10
56300;DHT22;42209;6.376;-10.782;2023-02-03T02:02:58;22.70;46.30
56300;DHT22;42209;6.376;-10.782;2023-02-03T02:05:41;22.60;45.20
56300;DHT22;42209;6.376;-10.782;2023-02-03T02:08:14;22.50;44.60
56300;DHT22;42209;6.376;-10.782;2023-02-03T02:10:43;22.50;44.00
56300;DHT22;42209;6.376;-10.782;2023-02-03T02:13:12;22.50;43.40
56300;DHT22;42209;6.376;-10.782;2023-02-03T02:18:49;22.40;42.30
56300;DHT22;42209;6.376;-10.782;2023-02-03T02:44:11;23.10;55.90
56300;DHT22;42209;6.376;-10.782;2023-02-03T02:46:50;23.20;57.50
56300;DHT22;42209;6.376;-10.782;2023-02-03T02:49:33;23.30;57.80
56300;DHT22;42209;6.376;-10.782;2023-02-03T02:52:04;23.40;57.90
56300;DHT22;42209;6.376;-10.782;2023-02-03T02:54:38;23.50;56.00
56300;DHT22;42209;6.376;-10.782;2023-02-03T02:57:11;23.40;51.90
56300;DHT22;42209;6.376;-10.782;2023-02-03T02:59:40;23.10;50.00
56300;DHT22;42209;6.376;-10.782;2023-02-03T03:02:10;22.90;48.80
56300;DHT22;42209;6.376;-10.782;2023-02-03T03:04:39;22.80;47.80
56300;DHT22;42209;6.376;-10.782;2023-02-03T03:07:17;22.70;46.70
56300;DHT22;42209;6.376;-10.782;2023-02-03T03:09:59;22.60;45.80
56300;DHT22;42209;6.376;-10.782;2023-02-03T03:12:33;22.50;45.00
56300;DHT22;42209;6.376;-10.782;2023-02-03T03:15:20;22.50;44.40
56300;DHT22;42209;6.376;-10.782;2023-02-03T03:18:03;22.40;43.70
56300;DHT22;42209;6.376;-10.782;2023-02-03T03:20:33;22.40;43.20
56300;DHT22;42209;6.376;-10.782;2023-02-03T03:23:06;22.30;42.70
56300;DHT22;42209;6.376;-10.782;2023-02-03T03:25:42;22.30;42.20
56300;DHT22;42209;6.376;-10.782;2023-02-03T03:28:16;22.30;41.90
56300;DHT22;42209;6.376;-10.782;2023-02-03T03:30:48;22.30;41.70
56300;DHT22;42209;6.376;-10.782;2023-02-03T03:33:16;22.40;42.80
56300;DHT22;42209;6.376;-10.782;2023-02-03T03:35:52;22.40;41.80
56300;DHT22;42209;6.376;-10.782;2023-02-03T03:41:42;22.40;40.60
56300;DHT22;42209;6.376;-10.782;2023-02-03T03:44:15;22.50;41.10
56300;DHT22;42209;6.376;-10.782;2023-02-03T03:46:53;22.50;44.50
56300;DHT22;42209;6.376;-10.782;2023-02-03T03:49:24;22.70;49.00
56300;DHT22;42209;6.376;-10.782;2023-02-03T03:51:57;22.80;51.30
56300;DHT22;42209;6.376;-10.782;2023-02-03T03:54:28;22.90;53.20
56300;DHT22;42209;6.376;-10.782;2023-02-03T03:57:08;23.10;54.50
56300;DHT22;42209;6.376;-10.782;2023-02-03T03:59:39;23.10;55.20
56300;DHT22;42209;6.376;-10.782;2023-02-03T04:02:08;23.30;55.50
56300;DHT22;42209;6.376;-10.782;2023-02-03T04:07:40;23.40;52.10
56300;DHT22;42209;6.376;-10.782;2023-02-03T04:10:32;23.20;49.40
56300;DHT22;42209;6.376;-10.782;2023-02-03T04:13:01;23.00;52.50
56300;DHT22;42209;6.376;-10.782;2023-02-03T04:15:30;23.10;57.10
56300;DHT22;42209;6.376;-10.782;2023-02-03T04:17:59;23.20;58.80
56300;DHT22;42209;6.376;-10.782;2023-02-03T04:20:28;23.30;57.70
56300;DHT22;42209;6.376;-10.782;2023-02-03T04:22:57;23.50;57.40
56300;DHT22;42209;6.376;-10.782;2023-02-03T04:25:26;23.40;53.00
56300;DHT22;42209;6.376;-10.782;2023-02-03T04:27:55;23.20;51.00
56300;DHT22;42209;6.376;-10.782;2023-02-03T04:30:23;23.00;49.80
56300;DHT22;42209;6.376;-10.782;2023-02-03T04:32:53;22.80;48.70
56300;DHT22;42209;6.376;-10.782;2023-02-03T04:35:21;22.70;47.80
56300;DHT22;42209;6.376;-10.782;2023-02-03T04:37:49;22.60;46.70
56300;DHT22;42209;6.376;-10.782;2023-02-03T04:40:17;22.60;46.30
56300;DHT22;42209;6.376;-10.782;2023-02-03T04:42:46;22.50;46.70
56300;DHT22;42209;6.376;-10.782;2023-02-03T04:45:14;22.50;46.90
56300;DHT22;42209;6.376;-10.782;2023-02-03T04:47:43;22.50;46.70
56300;DHT22;42209;6.376;-10.782;2023-02-03T04:50:11;22.40;46.20
56300;DHT22;42209;6.376;-10.782;2023-02-03T04:52:39;22.40;46.20
56300;DHT22;42209;6.376;-10.782;2023-02-03T04:55:08;22.40;45.90
56300;DHT22;42209;6.376;-10.782;2023-02-03T04:57:36;22.30;45.30
56300;DHT22;42209;6.376;-10.782;2023-02-03T05:00:05;22.30;45.10
56300;DHT22;42209;6.376;-10.782;2023-02-03T05:02:33;22.30;44.60
56300;DHT22;42209;6.376;-10.782;2023-02-03T05:05:01;22.20;44.40
56300;DHT22;42209;6.376;-10.782;2023-02-03T05:07:29;22.20;44.30
56300;DHT22;42209;6.376;-10.782;2023-02-03T05:09:58;22.40;48.10
56300;DHT22;42209;6.376;-10.782;2023-02-03T05:12:26;22.60;52.70
56300;DHT22;42209;6.376;-10.782;2023-02-03T05:14:54;22.80;56.00
56300;DHT22;42209;6.376;-10.782;2023-02-03T05:17:23;22.90;58.30
56300;DHT22;42209;6.376;-10.782;2023-02-03T05:19:51;23.00;60.00
56300;DHT22;42209;6.376;-10.782;2023-02-03T05:22:19;23.10;61.50
56300;DHT22;42209;6.376;-10.782;2023-02-03T05:24:48;23.20;62.70
56300;DHT22;42209;6.376;-10.782;2023-02-03T05:27:16;23.20;63.60
56300;DHT22;42209;6.376;-10.782;2023-02-03T05:29:44;23.30;63.70
56300;DHT22;42209;6.376;-10.782;2023-02-03T05:32:13;23.40;63.90
56300;DHT22;42209;6.376;-10.782;2023-02-03T05:34:41;23.50;60.80
56300;DHT22;42209;6.376;-10.782;2023-02-03T05:37:09;23.30;57.00
56300;DHT22;42209;6.376;-10.782;2023-02-03T05:39:38;23.10;55.50
56300;DHT22;42209;6.376;-10.782;2023-02-03T05:42:06;22.90;54.00
56300;DHT22;42209;6.376;-10.782;2023-02-03T05:44:34;22.80;52.60
56300;DHT22;42209;6.376;-10.782;2023-02-03T05:47:03;22.70;51.00
56300;DHT22;42209;6.376;-10.782;2023-02-03T05:49:31;22.60;49.80
56300;DHT22;42209;6.376;-10.782;2023-02-03T05:52:00;22.50;48.30
56300;DHT22;42209;6.376;-10.782;2023-02-03T05:54:28;22.50;47.40
56300;DHT22;42209;6.376;-10.782;2023-02-03T05:56:56;22.40;46.60
56300;DHT22;42209;6.376;-10.782;2023-02-03T05:59:24;22.40;45.80
56300;DHT22;42209;6.376;-10.782;2023-02-03T06:01:53;22.40;45.10
56300;DHT22;42209;6.376;-10.782;2023-02-03T06:04:21;22.30;44.30
56300;DHT22;42209;6.376;-10.782;2023-02-03T06:06:49;22.30;47.10
56300;DHT22;42209;6.376;-10.782;2023-02-03T06:09:18;22.50;51.70
56300;DHT22;42209;6.376;-10.782;2023-02-03T06:11:46;22.70;54.20
56300;DHT22;42209;6.376;-10.782;2023-02-03T06:14:14;22.80;56.20
56300;DHT22;42209;6.376;-10.782;2023-02-03T06:16:43;22.90;58.00
56300;DHT22;42209;6.376;-10.782;2023-02-03T06:19:11;22.90;59.50
56300;DHT22;42209;6.376;-10.782;2023-02-03T06:21:42;23.10;59.60
56300;DHT22;42209;6.376;-10.782;2023-02-03T06:24:11;23.20;61.10
56300;DHT22;42209;6.376;-10.782;2023-02-03T06:26:39;23.30;61.20
56300;DHT22;42209;6.376;-10.782;2023-02-03T06:29:07;23.40;61.90
56300;DHT22;42209;6.376;-10.782;2023-02-03T06:31:35;23.50;61.80
56300;DHT22;42209;6.376;-10.782;2023-02-03T06:34:04;23.40;56.10
56300;DHT22;42209;6.376;-10.782;2023-02-03T06:36:32;23.20;54.00
56300;DHT22;42209;6.376;-10.782;2023-02-03T06:39:00;22.90;52.10
56300;DHT22;42209;6.376;-10.782;2023-02-03T06:41:29;22.70;50.70
56300;DHT22;42209;6.376;-10.782;2023-02-03T06:43:57;22.60;49.60
56300;DHT22;42209;6.376;-10.782;2023-02-03T06:46:25;22.50;48.50
56300;DHT22;42209;6.376;-10.782;2023-02-03T06:48:54;22.40;47.70
56300;DHT22;42209;6.376;-10.782;2023-02-03T06:51:22;22.40;46.60
56300;DHT22;42209;6.376;-10.782;2023-02-03T06:53:50;22.40;45.90
56300;DHT22;42209;6.376;-10.782;2023-02-03T06:56:19;22.30;46.10
56300;DHT22;42209;6.376;-10.782;2023-02-03T06:58:47;22.50;50.80
56300;DHT22;42209;6.376;-10.782;2023-02-03T07:01:15;22.60;53.90
56300;DHT22;42209;6.376;-10.782;2023-02-03T07:03:44;22.80;56.20
56300;DHT22;42209;6.376;-10.782;2023-02-03T07:06:13;22.80;58.20
56300;DHT22;42209;6.376;-10.782;2023-02-03T07:08:41;22.90;59.70
56300;DHT22;42209;6.376;-10.782;2023-02-03T07:11:10;23.00;60.70
56300;DHT22;42209;6.376;-10.782;2023-02-03T07:13:38;23.10;62.70
56300;DHT22;42209;6.376;-10.782;2023-02-03T07:16:06;23.30;62.90
56300;DHT22;42209;6.376;-10.782;2023-02-03T07:18:35;23.40;63.50
56300;DHT22;42209;6.376;-10.782;2023-02-03T07:21:15;23.50;63.90
56300;DHT22;42209;6.376;-10.782;2023-02-03T07:23:46;23.40;58.70
56300;DHT22;42209;6.376;-10.782;2023-02-03T07:26:15;23.20;57.00
56300;DHT22;42209;6.376;-10.782;2023-02-03T07:28:44;23.00;57.80
56300;DHT22;42209;6.376;-10.782;2023-02-03T07:31:12;22.90;59.50
56300;DHT22;42209;6.376;-10.782;2023-02-03T07:33:41;22.80;58.80
56300;DHT22;42209;6.376;-10.782;2023-02-03T07:36:10;22.80;57.00
56300;DHT22;42209;6.376;-10.782;2023-02-03T07:38:38;22.70;55.60
56300;DHT22;42209;6.376;-10.782;2023-02-03T07:41:06;22.70;54.10
56300;DHT22;42209;6.376;-10.782;2023-02-03T07:43:35;22.60;52.60
56300;DHT22;42209;6.376;-10.782;2023-02-03T07:46:04;22.50;51.40
56300;DHT22;42209;6.376;-10.782;2023-02-03T07:48:32;22.50;50.70
56300;DHT22;42209;6.376;-10.782;2023-02-03T07:51:00;22.50;49.70
56300;DHT22;42209;6.376;-10.782;2023-02-03T07:53:29;22.40;49.10
56300;DHT22;42209;6.376;-10.782;2023-02-03T07:56:02;22.40;49.10
56300;DHT22;42209;6.376;-10.782;2023-02-03T07:58:31;22.30;47.80
56300;DHT22;42209;6.376;-10.782;2023-02-03T08:00:59;22.30;47.30
56300;DHT22;42209;6.376;-10.782;2023-02-03T08:03:28;22.20;46.90
56300;DHT22;42209;6.376;-10.782;2023-02-03T08:05:56;22.20;46.60
56300;DHT22;42209;6.376;-10.782;2023-02-03T08:08:24;22.30;50.70
56300;DHT22;42209;6.376;-10.782;2023-02-03T08:10:54;22.50;55.10
56300;DHT22;42209;6.376;-10.782;2023-02-03T08:13:23;22.70;57.90
56300;DHT22;42209;6.376;-10.782;2023-02-03T08:15:51;22.80;59.80
56300;DHT22;42209;6.376;-10.782;2023-02-03T08:18:20;22.80;61.50
56300;DHT22;42209;6.376;-10.782;2023-02-03T08:20:48;22.90;63.10
56300;DHT22;42209;6.376;-10.782;2023-02-03T08:23:17;23.00;64.50
56300;DHT22;42209;6.376;-10.782;2023-02-03T08:25:53;23.10;65.50
56300;DHT22;42209;6.376;-10.782;2023-02-03T08:28:21;23.20;65.30
56300;DHT22;42209;6.376;-10.782;2023-02-03T08:30:49;23.30;66.10
56300;DHT22;42209;6.376;-10.782;2023-02-03T08:33:18;23.40;65.90
56300;DHT22;42209;6.376;-10.782;2023-02-03T08:35:47;23.40;61.10
56300;DHT22;42209;6.376;-10.782;2023-02-03T08:38:16;23.20;58.80
56300;DHT22;42209;6.376;-10.782;2023-02-03T08:40:44;23.00;56.90
56300;DHT22;42209;6.376;-10.782;2023-02-03T08:43:13;22.80;55.40
56300;DHT22;42209;6.376;-10.782;2023-02-03T08:45:41;22.70;54.20
56300;DHT22;42209;6.376;-10.782;2023-02-03T08:48:10;22.60;52.80
56300;DHT22;42209;6.376;-10.782;2023-02-03T08:50:41;22.50;51.80
56300;DHT22;42209;6.376;-10.782;2023-02-03T08:53:10;22.50;51.80
56300;DHT22;42209;6.376;-10.782;2023-02-03T08:55:39;22.40;50.50
56300;DHT22;42209;6.376;-10.782;2023-02-03T08:58:07;22.40;50.60
56300;DHT22;42209;6.376;-10.782;2023-02-03T09:00:36;22.60;56.10
56300;DHT22;42209;6.376;-10.782;2023-02-03T09:03:04;22.70;59.00
56300;DHT22;42209;6.376;-10.782;2023-02-03T09:05:32;22.80;61.10
56300;DHT22;42209;6.376;-10.782;2023-02-03T09:08:01;23.00;63.00
56300;DHT22;42209;6.376;-10.782;2023-02-03T09:10:29;23.00;64.90
56300;DHT22;42209;6.376;-10.782;2023-02-03T09:12:58;23.20;67.00
56300;DHT22;42209;6.376;-10.782;2023-02-03T09:15:26;23.30;68.10
56300;DHT22;42209;6.376;-10.782;2023-02-03T09:17:54;23.30;68.70
56300;DHT22;42209;6.376;-10.782;2023-02-03T09:20:22;23.40;69.40
56300;DHT22;42209;6.376;-10.782;2023-02-03T09:22:51;23.50;68.00
56300;DHT22;42209;6.376;-10.782;2023-02-03T09:25:19;23.40;62.20
56300;DHT22;42209;6.376;-10.782;2023-02-03T09:27:48;23.20;59.60
56300;DHT22;42209;6.376;-10.782;2023-02-03T09:30:16;23.00;57.80
56300;DHT22;42209;6.376;-10.782;2023-02-03T09:32:45;22.90;56.10
56300;DHT22;42209;6.376;-10.782;2023-02-03T09:35:14;22.80;54.90
56300;DHT22;42209;6.376;-10.782;2023-02-03T09:37:42;22.70;54.20
56300;DHT22;42209;6.376;-10.782;2023-02-03T09:40:19;22.60;52.70
56300;DHT22;42209;6.376;-10.782;2023-02-03T09:46:01;22.50;50.60
56300;DHT22;42209;6.376;-10.782;2023-02-03T09:48:35;22.40;49.90
56300;DHT22;42209;6.376;-10.782;2023-02-03T09:51:08;22.50;49.00
56300;DHT22;42209;6.376;-10.782;2023-02-03T09:53:49;22.40;48.20
56300;DHT22;42209;6.376;-10.782;2023-02-03T09:56:38;22.40;48.00
56300;DHT22;42209;6.376;-10.782;2023-02-03T09:59:08;22.30;47.10
56300;DHT22;42209;6.376;-10.782;2023-02-03T10:04:37;22.20;46.10
56300;DHT22;42209;6.376;-10.782;2023-02-03T10:07:33;22.20;45.80
56300;DHT22;42209;6.376;-10.782;2023-02-03T10:11:00;22.10;45.70
56300;DHT22;42209;6.376;-10.782;2023-02-03T10:18:33;22.50;54.70
56300;DHT22;42209;6.376;-10.782;2023-02-03T10:21:11;22.70;57.50
56300;DHT22;42209;6.376;-10.782;2023-02-03T10:23:42;22.80;59.30
56300;DHT22;42209;6.376;-10.782;2023-02-03T10:26:19;22.90;61.20
56300;DHT22;42209;6.376;-10.782;2023-02-03T10:28:56;23.00;62.90
56300;DHT22;42209;6.376;-10.782;2023-02-03T10:31:32;23.10;63.90
56300;DHT22;42209;6.376;-10.782;2023-02-03T10:34:09;23.20;64.40
56300;DHT22;42209;6.376;-10.782;2023-02-03T10:36:54;23.40;64.50
56300;DHT22;42209;6.376;-10.782;2023-02-03T10:42:00;23.30;58.10
56300;DHT22;42209;6.376;-10.782;2023-02-03T10:44:55;23.10;56.10
56300;DHT22;42209;6.376;-10.782;2023-02-03T10:47:35;22.80;55.20
56300;DHT22;42209;6.376;-10.782;2023-02-03T10:50:18;22.70;53.00
56300;DHT22;42209;6.376;-10.782;2023-02-03T10:52:47;22.60;52.20
56300;DHT22;42209;6.376;-10.782;2023-02-03T10:57:50;22.60;50.50
56300;DHT22;42209;6.376;-10.782;2023-02-03T11:00:33;22.50;49.40
56300;DHT22;42209;6.376;-10.782;2023-02-03T11:03:15;22.40;48.80
56300;DHT22;42209;6.376;-10.782;2023-02-03T11:06:09;22.40;48.40
56300;DHT22;42209;6.376;-10.782;2023-02-03T11:08:41;22.30;47.80
56300;DHT22;42209;6.376;-10.782;2023-02-03T11:11:30;22.30;47.30
56300;DHT22;42209;6.376;-10.782;2023-02-03T11:16:32;22.20;46.00
56300;DHT22;42209;6.376;-10.782;2023-02-03T11:19:19;22.20;45.90
56300;DHT22;42209;6.376;-10.782;2023-02-03T11:21:52;22.20;45.50
56300;DHT22;42209;6.376;-10.782;2023-02-03T11:27:08;22.20;48.90
56300;DHT22;42209;6.376;-10.782;2023-02-03T11:29:42;22.50;53.60
56300;DHT22;42209;6.376;-10.782;2023-02-03T11:32:32;22.70;56.50
56300;DHT22;42209;6.376;-10.782;2023-02-03T11:35:12;22.80;58.90
56300;DHT22;42209;6.376;-10.782;2023-02-03T11:37:42;22.90;61.10
56300;DHT22;42209;6.376;-10.782;2023-02-03T11:40:12;23.00;62.90
56300;DHT22;42209;6.376;-10.782;2023-02-03T11:57:14;23.10;57.10
56300;DHT22;42209;6.376;-10.782;2023-02-03T11:59:54;22.90;55.20
56300;DHT22;42209;6.376;-10.782;2023-02-03T12:08:22;22.70;51.80
56300;DHT22;42209;6.376;-10.782;2023-02-03T12:14:07;22.50;49.90
56300;DHT22;42209;6.376;-10.782;2023-02-03T12:17:12;22.50;49.30
56300;DHT22;42209;6.376;-10.782;2023-02-03T12:23:00;22.40;47.80
56300;DHT22;42209;6.376;-10.782;2023-02-03T12:31:45;22.40;45.90
56300;DHT22;42209;6.376;-10.782;2023-02-03T12:37:41;22.30;45.10
56300;DHT22;42209;6.376;-10.782;2023-02-03T12:40:36;22.30;44.80
56300;DHT22;42209;6.376;-10.782;2023-02-03T12:43:45;22.30;44.70
56300;DHT22;42209;6.376;-10.782;2023-02-03T12:46:31;22.30;44.40
56300;DHT22;42209;6.376;-10.782;2023-02-03T12:52:02;22.30;43.60
56300;DHT22;42209;6.376;-10.782;2023-02-03T13:11:43;22.20;43.20
56300;DHT22;42209;6.376;-10.782;2023-02-03T13:14:37;22.20;43.00
56300;DHT22;42209;6.376;-10.782;2023-02-03T13:20:01;22.20;43.00
56300;DHT22;42209;6.376;-10.782;2023-02-03T13:22:31;22.20;42.90
56300;DHT22;42209;6.376;-10.782;2023-02-03T13:36:39;22.10;42.50
56300;DHT22;42209;6.376;-10.782;2023-02-03T13:44:48;22.10;42.70
56300;DHT22;42209;6.376;-10.782;2023-02-03T13:47:21;22.20;42.60
56300;DHT22;42209;6.376;-10.782;2023-02-03T13:50:00;22.10;42.60
56300;DHT22;42209;6.376;-10.782;2023-02-03T13:52:31;22.10;42.80
56300;DHT22;42209;6.376;-10.782;2023-02-03T13:55:01;22.10;43.00
56300;DHT22;42209;6.376;-10.782;2023-02-03T13:57:39;22.10;43.00
56300;DHT22;42209;6.376;-10.782;2023-02-03T14:05:57;22.10;42.60
56300;DHT22;42209;6.376;-10.782;2023-02-03T14:16:48;22.10;42.60
56300;DHT22;42209;6.376;-10.782;2023-02-03T14:22:08;22.10;42.60
56300;DHT22;42209;6.376;-10.782;2023-02-03T14:24:43;22.10;42.70
56300;DHT22;42209;6.376;-10.782;2023-02-03T14:27:31;22.20;42.50
56300;DHT22;42209;6.376;-10.782;2023-02-03T14:30:20;22.10;42.40
56300;DHT22;42209;6.376;-10.782;2023-02-03T14:35:38;22.10;42.40
56300;DHT22;42209;6.376;-10.782;2023-02-03T14:38:14;22.10;42.20
56300;DHT22;42209;6.376;-10.782;2023-02-03T14:40:51;22.10;42.40
56300;DHT22;42209;6.376;-10.782;2023-02-03T14:43:23;22.10;42.10
56300;DHT22;42209;6.376;-10.782;2023-02-03T14:58:20;22.20;42.50
56300;DHT22;42209;6.376;-10.782;2023-02-03T15:05:45;22.20;43.80
56300;DHT22;42209;6.376;-10.782;2023-02-03T15:08:36;22.20;45.20
56300;DHT22;42209;6.376;-10.782;2023-02-03T15:11:42;22.30;46.00
56300;DHT22;42209;6.376;-10.782;2023-02-03T15:14:25;22.30;45.80
56300;DHT22;42209;6.376;-10.782;2023-02-03T15:16:59;22.30;45.10
56300;DHT22;42209;6.376;-10.782;2023-02-03T15:19:38;22.30;44.50
56300;DHT22;42209;6.376;-10.782;2023-02-03T15:24:46;22.30;44.30
56300;DHT22;42209;6.376;-10.782;2023-02-03T15:27:26;22.30;43.80
56300;DHT22;42209;6.376;-10.782;2023-02-03T15:29:55;22.30;43.50
56300;DHT22;42209;6.376;-10.782;2023-02-03T15:32:32;22.30;43.20
56300;DHT22;42209;6.376;-10.782;2023-02-03T15:35:03;22.30;43.00
56300;DHT22;42209;6.376;-10.782;2023-02-03T15:37:54;22.30;43.00
56300;DHT22;42209;6.376;-10.782;2023-02-03T15:40:30;22.30;42.80
56300;DHT22;42209;6.376;-10.782;2023-02-03T15:45:41;22.30;42.80
56300;DHT22;42209;6.376;-10.782;2023-02-03T15:48:27;22.30;42.60
56300;DHT22;42209;6.376;-10.782;2023-02-03T15:51:18;22.30;42.50
56300;DHT22;42209;6.376;-10.782;2023-02-03T15:59:54;22.30;42.10
56300;DHT22;42209;6.376;-10.782;2023-02-03T16:02:30;22.40;42.00
56300;DHT22;42209;6.376;-10.782;2023-02-03T16:05:28;22.30;41.80
56300;DHT22;42209;6.376;-10.782;2023-02-03T16:10:54;22.40;41.40
56300;DHT22;42209;6.376;-10.782;2023-02-03T16:13:24;22.30;41.30
56300;DHT22;42209;6.376;-10.782;2023-02-03T16:19:04;22.30;41.10
56300;DHT22;42209;6.376;-10.782;2023-02-03T16:21:50;22.40;41.00
56300;DHT22;42209;6.376;-10.782;2023-02-03T16:32:31;22.40;40.60
56300;DHT22;42209;6.376;-10.782;2023-02-03T16:34:59;22.40;40.40
56300;DHT22;42209;6.376;-10.782;2023-02-03T16:37:33;22.40;40.50
56300;DHT22;42209;6.376;-10.782;2023-02-03T16:40:02;22.40;40.50
56300;DHT22;42209;6.376;-10.782;2023-02-03T16:42:35;22.40;40.60
56300;DHT22;42209;6.376;-10.782;2023-02-03T16:45:14;22.40;40.80
56300;DHT22;42209;6.376;-10.782;2023-02-03T16:47:45;22.40;40.80
56300;DHT22;42209;6.376;-10.782;2023-02-03T16:50:21;22.50;40.90
56300;DHT22;42209;6.376;-10.782;2023-02-03T16:53:04;22.50;40.70
56300;DHT22;42209;6.376;-10.782;2023-02-03T16:55:33;22.50;40.70
56300;DHT22;42209;6.376;-10.782;2023-02-03T16:58:01;22.50;40.90
56300;DHT22;42209;6.376;-10.782;2023-02-03T17:00:30;22.50;41.30
56300;DHT22;42209;6.376;-10.782;2023-02-03T17:02:59;22.50;41.30
56300;DHT22;42209;6.376;-10.782;2023-02-03T17:05:30;22.50;40.80
56300;DHT22;42209;6.376;-10.782;2023-02-03T17:07:58;22.50;40.90
56300;DHT22;42209;6.376;-10.782;2023-02-03T17:10:27;22.50;40.80
56300;DHT22;42209;6.376;-10.782;2023-02-03T17:12:55;22.50;40.60
56300;DHT22;42209;6.376;-10.782;2023-02-03T17:15:24;22.50;40.50
56300;DHT22;42209;6.376;-10.782;2023-02-03T17:17:52;22.50;40.30
56300;DHT22;42209;6.376;-10.782;2023-02-03T17:20:20;22.50;40.30
56300;DHT22;42209;6.376;-10.782;2023-02-03T17:22:49;22.50;40.20
56300;DHT22;42209;6.376;-10.782;2023-02-03T17:25:17;22.50;40.10
56300;DHT22;42209;6.376;-10.782;2023-02-03T17:27:46;22.50;40.20
56300;DHT22;42209;6.376;-10.782;2023-02-03T17:30:14;22.50;40.00
56300;DHT22;42209;6.376;-10.782;2023-02-03T17:32:43;22.50;40.00
56300;DHT22;42209;6.376;-10.782;2023-02-03T17:35:11;22.50;39.80
56300;DHT22;42209;6.376;-10.782;2023-02-03T17:37:39;22.60;40.10
56300;DHT22;42209;6.376;-10.782;2023-02-03T17:40:08;22.50;39.80
56300;DHT22;42209;6.376;-10.782;2023-02-03T17:42:53;22.50;39.70
56300;DHT22;42209;6.376;-10.782;2023-02-03T17:45:41;22.50;39.70
56300;DHT22;42209;6.376;-10.782;2023-02-03T17:48:26;22.50;39.80
56300;DHT22;42209;6.376;-10.782;2023-02-03T17:51:21;22.60;40.10
56300;DHT22;42209;6.376;-10.782;2023-02-03T17:54:06;22.50;39.60
56300;DHT22;42209;6.376;-10.782;2023-02-03T17:56:34;22.50;39.60
56300;DHT22;42209;6.376;-10.782;2023-02-03T17:59:04;22.50;39.70
56300;DHT22;42209;6.376;-10.782;2023-02-03T18:01:32;22.50;39.60
56300;DHT22;42209;6.376;-10.782;2023-02-03T18:04:02;22.50;39.70
56300;DHT22;42209;6.376;-10.782;2023-02-03T18:06:32;22.50;39.60
56300;DHT22;42209;6.376;-10.782;2023-02-03T18:09:02;22.50;39.40
56300;DHT22;42209;6.376;-10.782;2023-02-03T18:11:34;22.50;39.50
56300;DHT22;42209;6.376;-10.782;2023-02-03T18:14:03;22.50;39.30
56300;DHT22;42209;6.376;-10.782;2023-02-03T18:16:33;22.50;39.30
56300;DHT22;42209;6.376;-10.782;2023-02-03T18:19:04;22.50;39.20
56300;DHT22;42209;6.376;-10.782;2023-02-03T18:21:33;22.50;39.50
56300;DHT22;42209;6.376;-10.782;2023-02-03T18:24:03;22.50;39.70
56300;DHT22;42209;6.376;-10.782;2023-02-03T18:26:34;22.50;39.70
56300;DHT22;42209;6.376;-10.782;2023-02-03T18:29:03;22.50;39.50
56300;DHT22;42209;6.376;-10.782;2023-02-03T18:31:32;22.50;39.50
56300;DHT22;42209;6.376;-10.782;2023-02-03T18:34:02;22.40;39.50
56300;DHT22;42209;6.376;-10.782;2023-02-03T18:36:31;22.40;39.90
56300;DHT22;42209;6.376;-10.782;2023-02-03T18:39:00;22.40;39.10
56300;DHT22;42209;6.376;-10.782;2023-02-03T18:41:29;22.40;39.10
56300;DHT22;42209;6.376;-10.782;2023-02-03T18:43:57;22.30;39.00
56300;DHT22;42209;6.376;-10.782;2023-02-03T18:46:28;22.40;38.90
56300;DHT22;42209;6.376;-10.782;2023-02-03T18:48:57;22.30;38.80
56300;DHT22;42209;6.376;-10.782;2023-02-03T18:51:26;22.30;39.50
56300;DHT22;42209;6.376;-10.782;2023-02-03T18:53:58;22.30;39.20
56300;DHT22;42209;6.376;-10.782;2023-02-03T18:56:28;22.30;39.00
56300;DHT22;42209;6.376;-10.782;2023-02-03T18:58:56;22.30;38.90
56300;DHT22;42209;6.376;-10.782;2023-02-03T19:01:27;22.30;38.90
56300;DHT22;42209;6.376;-10.782;2023-02-03T19:03:58;22.30;38.90